sensor_id;sensor_type;location;lat;lon;timestamp;P1;durP1;ratioP1;P2;durP2;ratioP2
62256;SDS011;48240;52.962;5.790;2023-08-07T03:53:18;4.85;;;1.20;;
62256;SDS011;48240;52.962;5.790;2023-08-07T03:55:48;3.22;;;1.15;;
62256;SDS011;48240;52.962;5.790;2023-08-07T03:58:14;2.53;;;1.15;;
62256;SDS011;48240;52.962;5.790;2023-08-07T04:00:40;4.53;;;1.35;;
62256;SDS011;48240;52.962;5.790;2023-08-07T04:03:06;3.05;;;0.93;;
62256;SDS011;48240;52.962;5.790;2023-08-07T04:05:33;3.75;;;1.23;;
62256;SDS011;48240;52.962;5.790;2023-08-07T04:07:59;2.78;;;1.20;;
62256;SDS011;48240;52.962;5.790;2023-08-07T04:10:25;3.72;;;1.05;;
62256;SDS011;48240;52.962;5.790;2023-08-07T04:12:51;5.45;;;1.42;;
62256;SDS011;48240;52.962;5.790;2023-08-07T04:15:17;3.20;;;1.48;;
62256;SDS011;48240;52.962;5.790;2023-08-07T04:17:43;4.97;;;1.30;;
62256;SDS011;48240;52.962;5.790;2023-08-07T04:20:09;2.63;;;1.20;;
62256;SDS011;48240;52.962;5.790;2023-08-07T04:22:35;5.20;;;1.20;;
62256;SDS011;48240;52.962;5.790;2023-08-07T04:25:02;4.90;;;1.33;;
62256;SDS011;48240;52.962;5.790;2023-08-07T04:27:28;3.45;;;1.30;;
62256;SDS011;48240;52.962;5.790;2023-08-07T04:29:54;3.88;;;1.40;;
62256;SDS011;48240;52.962;5.790;2023-08-07T04:32:20;5.78;;;1.10;;
62256;SDS011;48240;52.962;5.790;2023-08-07T04:34:46;9.00;;;2.00;;
62256;SDS011;48240;52.962;5.790;2023-08-07T04:37:12;8.32;;;1.30;;
62256;SDS011;48240;52.962;5.790;2023-08-07T04:39:38;3.47;;;1.42;;
62256;SDS011;48240;52.962;5.790;2023-08-07T04:42:05;4.90;;;1.30;;
62256;SDS011;48240;52.962;5.790;2023-08-07T04:44:31;4.35;;;1.50;;
62256;SDS011;48240;52.962;5.790;2023-08-07T04:46:57;5.10;;;1.58;;
62256;SDS011;48240;52.962;5.790;2023-08-07T04:49:23;7.85;;;1.40;;
62256;SDS011;48240;52.962;5.790;2023-08-07T04:51:49;7.68;;;1.85;;
62256;SDS011;48240;52.962;5.790;2023-08-07T04:54:15;7.75;;;1.70;;
62256;SDS011;48240;52.962;5.790;2023-08-07T04:56:42;8.20;;;1.98;;
62256;SDS011;48240;52.962;5.790;2023-08-07T04:59:09;9.80;;;1.63;;
62256;SDS011;48240;52.962;5.790;2023-08-07T05:01:35;6.50;;;1.80;;
62256;SDS011;48240;52.962;5.790;2023-08-07T05:04:01;7.10;;;2.10;;
62256;SDS011;48240;52.962;5.790;2023-08-07T05:06:29;5.88;;;1.65;;
62256;SDS011;48240;52.962;5.790;2023-08-07T05:08:55;6.07;;;1.42;;
62256;SDS011;48240;52.962;5.790;2023-08-07T05:11:21;9.15;;;1.58;;
62256;SDS011;48240;52.962;5.790;2023-08-07T05:13:47;11.98;;;2.10;;
62256;SDS011;48240;52.962;5.790;2023-08-07T05:16:13;7.25;;;1.98;;
62256;SDS011;48240;52.962;5.790;2023-08-07T05:18:39;7.55;;;2.10;;
62256;SDS011;48240;52.962;5.790;2023-08-07T05:21:05;6.95;;;1.70;;
62256;SDS011;48240;52.962;5.790;2023-08-07T05:23:33;8.10;;;2.00;;
62256;SDS011;48240;52.962;5.790;2023-08-07T05:25:59;9.63;;;2.15;;
62256;SDS011;48240;52.962;5.790;2023-08-07T05:28:26;7.53;;;1.70;;
62256;SDS011;48240;52.962;5.790;2023-08-07T05:30:52;9.48;;;1.85;;
62256;SDS011;48240;52.962;5.790;2023-08-07T05:33:19;8.40;;;2.35;;
62256;SDS011;48240;52.962;5.790;2023-08-07T05:35:45;8.23;;;2.40;;
62256;SDS011;48240;52.962;5.790;2023-08-07T05:38:11;5.75;;;1.85;;
62256;SDS011;48240;52.962;5.790;2023-08-07T05:40:37;7.22;;;2.20;;
62256;SDS011;48240;52.962;5.790;2023-08-07T05:43:03;6.28;;;1.80;;
62256;SDS011;48240;52.962;5.790;2023-08-07T05:45:29;6.63;;;2.05;;
62256;SDS011;48240;52.962;5.790;2023-08-07T05:47:55;6.43;;;2.30;;
62256;SDS011;48240;52.962;5.790;2023-08-07T05:50:21;8.25;;;1.98;;
62256;SDS011;48240;52.962;5.790;2023-08-07T05:52:47;5.20;;;1.98;;
62256;SDS011;48240;52.962;5.790;2023-08-07T05:55:13;8.10;;;1.95;;
62256;SDS011;48240;52.962;5.790;2023-08-07T05:57:39;6.45;;;2.28;;
62256;SDS011;48240;52.962;5.790;2023-08-07T06:00:06;10.95;;;2.70;;
62256;SDS011;48240;52.962;5.790;2023-08-07T06:02:32;11.38;;;2.10;;
62256;SDS011;48240;52.962;5.790;2023-08-07T06:04:59;7.35;;;2.30;;
62256;SDS011;48240;52.962;5.790;2023-08-07T06:07:25;9.25;;;2.05;;
62256;SDS011;48240;52.962;5.790;2023-08-07T06:09:51;9.88;;;2.35;;
62256;SDS011;48240;52.962;5.790;2023-08-07T06:12:17;10.10;;;2.22;;
62256;SDS011;48240;52.962;5.790;2023-08-07T06:14:43;11.15;;;2.38;;
62256;SDS011;48240;52.962;5.790;2023-08-07T06:17:09;10.48;;;2.45;;
62256;SDS011;48240;52.962;5.790;2023-08-07T06:19:35;7.63;;;2.38;;
62256;SDS011;48240;52.962;5.790;2023-08-07T06:22:01;7.10;;;2.58;;
62256;SDS011;48240;52.962;5.790;2023-08-07T06:24:27;6.82;;;2.05;;
62256;SDS011;48240;52.962;5.790;2023-08-07T06:26:54;9.50;;;2.20;;
62256;SDS011;48240;52.962;5.790;2023-08-07T06:29:20;9.27;;;2.40;;
62256;SDS011;48240;52.962;5.790;2023-08-07T06:31:46;6.32;;;2.20;;
62256;SDS011;48240;52.962;5.790;2023-08-07T06:34:12;5.72;;;2.08;;
62256;SDS011;48240;52.962;5.790;2023-08-07T06:36:38;6.60;;;2.00;;
62256;SDS011;48240;52.962;5.790;2023-08-07T06:39:04;6.18;;;2.40;;
62256;SDS011;48240;52.962;5.790;2023-08-07T06:41:30;6.25;;;2.00;;
62256;SDS011;48240;52.962;5.790;2023-08-07T06:43:56;6.53;;;2.00;;
62256;SDS011;48240;52.962;5.790;2023-08-07T06:46:23;8.30;;;2.60;;
62256;SDS011;48240;52.962;5.790;2023-08-07T06:48:51;8.45;;;2.28;;
62256;SDS011;48240;52.962;5.790;2023-08-07T06:51:17;9.73;;;2.70;;
62256;SDS011;48240;52.962;5.790;2023-08-07T06:53:43;9.55;;;1.98;;
62256;SDS011;48240;52.962;5.790;2023-08-07T06:56:09;5.82;;;2.28;;
62256;SDS011;48240;52.962;5.790;2023-08-07T06:58:35;8.38;;;1.88;;
62256;SDS011;48240;52.962;5.790;2023-08-07T07:01:02;7.70;;;1.92;;
62256;SDS011;48240;52.962;5.790;2023-08-07T07:03:28;7.25;;;2.10;;
62256;SDS011;48240;52.962;5.790;2023-08-07T07:05:55;8.48;;;2.17;;
62256;SDS011;48240;52.962;5.790;2023-08-07T07:08:21;7.85;;;1.90;;
62256;SDS011;48240;52.962;5.790;2023-08-07T07:10:48;8.45;;;2.15;;
62256;SDS011;48240;52.962;5.790;2023-08-07T07:13:14;6.10;;;1.77;;
62256;SDS011;48240;52.962;5.790;2023-08-07T07:15:40;6.15;;;2.00;;
62256;SDS011;48240;52.962;5.790;2023-08-07T07:18:06;10.52;;;2.03;;
62256;SDS011;48240;52.962;5.790;2023-08-07T07:20:33;9.32;;;1.85;;
62256;SDS011;48240;52.962;5.790;2023-08-07T07:22:59;7.88;;;1.92;;
62256;SDS011;48240;52.962;5.790;2023-08-07T07:25:25;6.32;;;1.80;;
62256;SDS011;48240;52.962;5.790;2023-08-07T07:27:51;5.13;;;1.98;;
62256;SDS011;48240;52.962;5.790;2023-08-07T07:30:17;5.28;;;1.85;;
62256;SDS011;48240;52.962;5.790;2023-08-07T07:32:43;6.15;;;1.73;;
62256;SDS011;48240;52.962;5.790;2023-08-07T07:35:09;8.63;;;2.00;;
62256;SDS011;48240;52.962;5.790;2023-08-07T07:37:35;7.00;;;2.55;;
62256;SDS011;48240;52.962;5.790;2023-08-07T07:40:01;6.93;;;1.95;;
62256;SDS011;48240;52.962;5.790;2023-08-07T07:42:27;8.48;;;2.08;;
62256;SDS011;48240;52.962;5.790;2023-08-07T07:44:53;6.40;;;2.08;;
62256;SDS011;48240;52.962;5.790;2023-08-07T07:47:20;7.78;;;2.67;;
62256;SDS011;48240;52.962;5.790;2023-08-07T07:49:46;5.85;;;1.98;;
62256;SDS011;48240;52.962;5.790;2023-08-07T07:52:13;6.20;;;1.73;;
62256;SDS011;48240;52.962;5.790;2023-08-07T07:54:39;9.43;;;2.13;;
62256;SDS011;48240;52.962;5.790;2023-08-07T07:57:05;8.13;;;2.05;;
62256;SDS011;48240;52.962;5.790;2023-08-07T07:59:31;6.53;;;2.28;;
62256;SDS011;48240;52.962;5.790;2023-08-07T08:01:57;7.93;;;2.83;;
62256;SDS011;48240;52.962;5.790;2023-08-07T08:04:23;11.55;;;2.53;;
62256;SDS011;48240;52.962;5.790;2023-08-07T08:06:50;7.40;;;2.30;;
62256;SDS011;48240;52.962;5.790;2023-08-07T08:09:16;7.93;;;2.38;;
62256;SDS011;48240;52.962;5.790;2023-08-07T08:11:42;9.52;;;2.50;;
62256;SDS011;48240;52.962;5.790;2023-08-07T08:14:08;6.90;;;2.25;;
62256;SDS011;48240;52.962;5.790;2023-08-07T08:16:34;8.10;;;2.30;;
62256;SDS011;48240;52.962;5.790;2023-08-07T08:19:00;5.13;;;2.13;;
62256;SDS011;48240;52.962;5.790;2023-08-07T08:21:27;10.32;;;2.33;;
62256;SDS011;48240;52.962;5.790;2023-08-07T08:23:53;4.25;;;1.90;;
62256;SDS011;48240;52.962;5.790;2023-08-07T08:26:19;8.10;;;2.25;;
62256;SDS011;48240;52.962;5.790;2023-08-07T08:28:45;5.82;;;2.03;;
62256;SDS011;48240;52.962;5.790;2023-08-07T08:31:11;6.88;;;2.05;;
62256;SDS011;48240;52.962;5.790;2023-08-07T08:33:37;6.50;;;2.00;;
62256;SDS011;48240;52.962;5.790;2023-08-07T08:36:03;7.57;;;2.10;;
62256;SDS011;48240;52.962;5.790;2023-08-07T08:38:30;10.20;;;2.28;;
62256;SDS011;48240;52.962;5.790;2023-08-07T08:40:58;9.95;;;2.17;;
62256;SDS011;48240;52.962;5.790;2023-08-07T08:43:27;8.35;;;1.70;;
62256;SDS011;48240;52.962;5.790;2023-08-07T08:45:53;6.75;;;2.00;;
62256;SDS011;48240;52.962;5.790;2023-08-07T08:48:20;7.70;;;2.00;;
62256;SDS011;48240;52.962;5.790;2023-08-07T08:50:48;6.05;;;1.85;;
62256;SDS011;48240;52.962;5.790;2023-08-07T08:53:15;5.70;;;1.80;;
62256;SDS011;48240;52.962;5.790;2023-08-07T08:55:41;6.35;;;2.08;;
62256;SDS011;48240;52.962;5.790;2023-08-07T08:58:11;6.60;;;2.10;;
62256;SDS011;48240;52.962;5.790;2023-08-07T09:00:39;8.23;;;2.05;;
62256;SDS011;48240;52.962;5.790;2023-08-07T09:03:05;6.72;;;1.80;;
62256;SDS011;48240;52.962;5.790;2023-08-07T09:05:31;5.82;;;1.80;;
62256;SDS011;48240;52.962;5.790;2023-08-07T09:07:58;6.20;;;2.20;;
62256;SDS011;48240;52.962;5.790;2023-08-07T09:10:24;6.95;;;2.05;;
62256;SDS011;48240;52.962;5.790;2023-08-07T09:15:17;6.18;;;1.63;;
62256;SDS011;48240;52.962;5.790;2023-08-07T09:17:44;6.10;;;2.03;;
62256;SDS011;48240;52.962;5.790;2023-08-07T09:20:11;7.90;;;2.60;;
62256;SDS011;48240;52.962;5.790;2023-08-07T09:22:39;7.53;;;2.05;;
62256;SDS011;48240;52.962;5.790;2023-08-07T09:25:06;12.40;;;2.53;;
62256;SDS011;48240;52.962;5.790;2023-08-07T09:27:32;5.68;;;1.80;;
62256;SDS011;48240;52.962;5.790;2023-08-07T09:29:58;8.73;;;1.83;;
62256;SDS011;48240;52.962;5.790;2023-08-07T09:32:25;6.15;;;2.08;;
62256;SDS011;48240;52.962;5.790;2023-08-07T09:34:51;7.85;;;2.13;;
62256;SDS011;48240;52.962;5.790;2023-08-07T09:37:17;7.68;;;2.40;;
62256;SDS011;48240;52.962;5.790;2023-08-07T09:39:43;5.00;;;1.77;;
62256;SDS011;48240;52.962;5.790;2023-08-07T09:42:15;8.23;;;2.42;;
62256;SDS011;48240;52.962;5.790;2023-08-07T09:44:42;4.72;;;1.88;;
62256;SDS011;48240;52.962;5.790;2023-08-07T09:47:13;8.25;;;2.10;;
62256;SDS011;48240;52.962;5.790;2023-08-07T09:49:40;7.67;;;1.83;;
62256;SDS011;48240;52.962;5.790;2023-08-07T09:52:07;6.25;;;2.15;;
62256;SDS011;48240;52.962;5.790;2023-08-07T09:54:34;5.22;;;1.90;;
62256;SDS011;48240;52.962;5.790;2023-08-07T09:57:03;9.05;;;2.40;;
62256;SDS011;48240;52.962;5.790;2023-08-07T09:59:31;7.32;;;2.05;;
62256;SDS011;48240;52.962;5.790;2023-08-07T10:01:57;9.60;;;2.40;;
62256;SDS011;48240;52.962;5.790;2023-08-07T10:04:25;3.45;;;1.63;;
62256;SDS011;48240;52.962;5.790;2023-08-07T10:06:52;4.15;;;1.75;;
62256;SDS011;48240;52.962;5.790;2023-08-07T10:09:18;7.13;;;1.77;;
62256;SDS011;48240;52.962;5.790;2023-08-07T10:11:45;6.28;;;2.05;;
62256;SDS011;48240;52.962;5.790;2023-08-07T10:14:14;8.70;;;2.00;;
62256;SDS011;48240;52.962;5.790;2023-08-07T10:16:41;6.57;;;2.10;;
62256;SDS011;48240;52.962;5.790;2023-08-07T10:19:07;9.52;;;2.10;;
62256;SDS011;48240;52.962;5.790;2023-08-07T10:21:35;6.85;;;1.92;;
62256;SDS011;48240;52.962;5.790;2023-08-07T10:24:03;4.72;;;1.90;;
62256;SDS011;48240;52.962;5.790;2023-08-07T10:26:29;12.07;;;1.90;;
62256;SDS011;48240;52.962;5.790;2023-08-07T10:28:55;6.07;;;2.08;;
62256;SDS011;48240;52.962;5.790;2023-08-07T10:31:22;4.85;;;1.75;;
62256;SDS011;48240;52.962;5.790;2023-08-07T10:33:49;8.27;;;2.15;;
62256;SDS011;48240;52.962;5.790;2023-08-07T10:36:16;7.85;;;2.33;;
62256;SDS011;48240;52.962;5.790;2023-08-07T10:38:42;5.28;;;1.95;;
62256;SDS011;48240;52.962;5.790;2023-08-07T10:41:08;5.68;;;1.75;;
62256;SDS011;48240;52.962;5.790;2023-08-07T10:43:39;4.90;;;2.00;;
62256;SDS011;48240;52.962;5.790;2023-08-07T10:46:26;8.77;;;2.30;;
62256;SDS011;48240;52.962;5.790;2023-08-07T10:48:55;4.88;;;1.73;;
62256;SDS011;48240;52.962;5.790;2023-08-07T10:51:34;7.72;;;1.77;;
62256;SDS011;48240;52.962;5.790;2023-08-07T10:54:01;7.78;;;2.13;;
62256;SDS011;48240;52.962;5.790;2023-08-07T10:56:31;8.02;;;2.03;;
62256;SDS011;48240;52.962;5.790;2023-08-07T10:58:57;10.57;;;3.88;;
62256;SDS011;48240;52.962;5.790;2023-08-07T11:03:53;7.65;;;1.75;;
62256;SDS011;48240;52.962;5.790;2023-08-07T11:06:27;6.72;;;1.80;;
62256;SDS011;48240;52.962;5.790;2023-08-07T11:08:56;6.38;;;2.00;;
62256;SDS011;48240;52.962;5.790;2023-08-07T11:11:24;6.82;;;1.80;;
62256;SDS011;48240;52.962;5.790;2023-08-07T11:13:50;10.77;;;2.25;;
62256;SDS011;48240;52.962;5.790;2023-08-07T11:16:16;8.23;;;1.90;;
62256;SDS011;48240;52.962;5.790;2023-08-07T11:18:42;11.93;;;1.95;;
62256;SDS011;48240;52.962;5.790;2023-08-07T11:21:09;13.10;;;2.25;;
62256;SDS011;48240;52.962;5.790;2023-08-07T11:23:41;13.07;;;2.00;;
62256;SDS011;48240;52.962;5.790;2023-08-07T11:26:09;7.57;;;2.15;;
62256;SDS011;48240;52.962;5.790;2023-08-07T11:28:35;5.57;;;1.88;;
62256;SDS011;48240;52.962;5.790;2023-08-07T11:31:01;6.13;;;1.60;;
62256;SDS011;48240;52.962;5.790;2023-08-07T11:33:28;6.03;;;1.90;;
62256;SDS011;48240;52.962;5.790;2023-08-07T11:35:54;8.57;;;2.13;;
62256;SDS011;48240;52.962;5.790;2023-08-07T11:41:05;9.38;;;1.73;;
62256;SDS011;48240;52.962;5.790;2023-08-07T11:43:32;10.18;;;1.88;;
62256;SDS011;48240;52.962;5.790;2023-08-07T11:45:59;6.90;;;1.88;;
62256;SDS011;48240;52.962;5.790;2023-08-07T11:48:26;7.07;;;1.85;;
62256;SDS011;48240;52.962;5.790;2023-08-07T11:50:53;6.20;;;1.88;;
62256;SDS011;48240;52.962;5.790;2023-08-07T11:53:20;8.10;;;2.28;;
62256;SDS011;48240;52.962;5.790;2023-08-07T11:58:21;7.80;;;1.88;;
62256;SDS011;48240;52.962;5.790;2023-08-07T12:00:47;6.50;;;2.00;;
62256;SDS011;48240;52.962;5.790;2023-08-07T12:03:23;3.03;;;1.50;;
62256;SDS011;48240;52.962;5.790;2023-08-07T12:05:50;7.72;;;1.90;;
62256;SDS011;48240;52.962;5.790;2023-08-07T12:08:16;7.32;;;2.28;;
62256;SDS011;48240;52.962;5.790;2023-08-07T12:10:43;5.93;;;1.75;;
62256;SDS011;48240;52.962;5.790;2023-08-07T12:13:09;6.97;;;2.40;;
62256;SDS011;48240;52.962;5.790;2023-08-07T12:15:37;5.88;;;2.00;;
62256;SDS011;48240;52.962;5.790;2023-08-07T12:18:03;4.82;;;1.75;;
62256;SDS011;48240;52.962;5.790;2023-08-07T12:20:29;5.03;;;1.67;;
62256;SDS011;48240;52.962;5.790;2023-08-07T12:22:55;5.05;;;1.73;;
62256;SDS011;48240;52.962;5.790;2023-08-07T12:25:21;6.38;;;1.85;;
62256;SDS011;48240;52.962;5.790;2023-08-07T12:27:47;7.55;;;1.63;;
62256;SDS011;48240;52.962;5.790;2023-08-07T12:30:14;3.55;;;1.35;;
62256;SDS011;48240;52.962;5.790;2023-08-07T12:32:40;6.32;;;1.88;;
62256;SDS011;48240;52.962;5.790;2023-08-07T12:35:06;4.00;;;2.00;;
62256;SDS011;48240;52.962;5.790;2023-08-07T12:37:34;8.57;;;2.42;;
62256;SDS011;48240;52.962;5.790;2023-08-07T12:40:00;4.68;;;1.70;;
62256;SDS011;48240;52.962;5.790;2023-08-07T12:42:26;5.20;;;1.90;;
62256;SDS011;48240;52.962;5.790;2023-08-07T12:44:52;5.15;;;1.90;;
62256;SDS011;48240;52.962;5.790;2023-08-07T12:47:18;8.10;;;2.58;;
62256;SDS011;48240;52.962;5.790;2023-08-07T12:49:44;5.90;;;1.95;;
62256;SDS011;48240;52.962;5.790;2023-08-07T12:52:12;6.43;;;2.00;;
62256;SDS011;48240;52.962;5.790;2023-08-07T12:54:38;5.07;;;1.95;;
62256;SDS011;48240;52.962;5.790;2023-08-07T12:57:04;6.10;;;2.05;;
62256;SDS011;48240;52.962;5.790;2023-08-07T12:59:31;7.10;;;2.40;;
62256;SDS011;48240;52.962;5.790;2023-08-07T13:01:57;6.07;;;1.75;;
62256;SDS011;48240;52.962;5.790;2023-08-07T13:04:23;6.13;;;2.20;;
62256;SDS011;48240;52.962;5.790;2023-08-07T13:06:50;7.43;;;2.10;;
62256;SDS011;48240;52.962;5.790;2023-08-07T13:09:16;8.25;;;2.35;;
62256;SDS011;48240;52.962;5.790;2023-08-07T13:11:42;11.43;;;2.88;;
62256;SDS011;48240;52.962;5.790;2023-08-07T13:14:08;7.32;;;2.45;;
62256;SDS011;48240;52.962;5.790;2023-08-07T13:16:34;7.05;;;2.20;;
62256;SDS011;48240;52.962;5.790;2023-08-07T13:19:00;8.32;;;2.60;;
62256;SDS011;48240;52.962;5.790;2023-08-07T13:21:26;7.03;;;2.58;;
62256;SDS011;48240;52.962;5.790;2023-08-07T13:23:52;9.30;;;2.20;;
62256;SDS011;48240;52.962;5.790;2023-08-07T13:26:19;8.30;;;2.20;;
62256;SDS011;48240;52.962;5.790;2023-08-07T13:28:45;11.25;;;2.30;;
62256;SDS011;48240;52.962;5.790;2023-08-07T13:31:11;9.52;;;2.38;;
62256;SDS011;48240;52.962;5.790;2023-08-07T13:33:37;10.63;;;2.63;;
62256;SDS011;48240;52.962;5.790;2023-08-07T13:36:03;10.05;;;2.28;;
62256;SDS011;48240;52.962;5.790;2023-08-07T13:38:29;7.25;;;2.75;;
62256;SDS011;48240;52.962;5.790;2023-08-07T13:40:55;8.43;;;2.05;;
62256;SDS011;48240;52.962;5.790;2023-08-07T13:43:21;9.80;;;2.30;;
62256;SDS011;48240;52.962;5.790;2023-08-07T13:45:47;6.50;;;2.50;;
62256;SDS011;48240;52.962;5.790;2023-08-07T13:48:15;7.38;;;2.28;;
62256;SDS011;48240;52.962;5.790;2023-08-07T13:50:42;9.13;;;2.20;;
62256;SDS011;48240;52.962;5.790;2023-08-07T13:53:08;10.75;;;2.30;;
62256;SDS011;48240;52.962;5.790;2023-08-07T13:55:34;9.68;;;2.63;;
62256;SDS011;48240;52.962;5.790;2023-08-07T13:58:00;8.30;;;2.40;;
62256;SDS011;48240;52.962;5.790;2023-08-07T14:00:26;6.63;;;2.45;;
62256;SDS011;48240;52.962;5.790;2023-08-07T14:02:53;10.80;;;2.40;;
62256;SDS011;48240;52.962;5.790;2023-08-07T14:05:19;7.97;;;2.00;;
62256;SDS011;48240;52.962;5.790;2023-08-07T14:07:45;8.70;;;2.17;;
62256;SDS011;48240;52.962;5.790;2023-08-07T14:10:11;5.90;;;2.13;;
62256;SDS011;48240;52.962;5.790;2023-08-07T14:12:37;9.93;;;2.42;;
62256;SDS011;48240;52.962;5.790;2023-08-07T14:15:04;7.47;;;1.88;;
62256;SDS011;48240;52.962;5.790;2023-08-07T14:17:30;4.03;;;1.73;;
62256;SDS011;48240;52.962;5.790;2023-08-07T14:19:56;4.95;;;1.70;;
62256;SDS011;48240;52.962;5.790;2023-08-07T14:22:22;6.43;;;1.95;;
62256;SDS011;48240;52.962;5.790;2023-08-07T14:24:48;10.15;;;2.28;;
62256;SDS011;48240;52.962;5.790;2023-08-07T14:27:14;5.80;;;1.77;;
62256;SDS011;48240;52.962;5.790;2023-08-07T14:29:40;5.30;;;1.83;;
62256;SDS011;48240;52.962;5.790;2023-08-07T14:32:06;6.45;;;2.08;;
62256;SDS011;48240;52.962;5.790;2023-08-07T14:34:32;9.52;;;1.83;;
62256;SDS011;48240;52.962;5.790;2023-08-07T14:36:59;8.27;;;1.92;;
62256;SDS011;48240;52.962;5.790;2023-08-07T14:39:25;7.97;;;2.03;;
62256;SDS011;48240;52.962;5.790;2023-08-07T14:41:51;8.13;;;1.90;;
62256;SDS011;48240;52.962;5.790;2023-08-07T14:44:17;6.80;;;2.10;;
62256;SDS011;48240;52.962;5.790;2023-08-07T14:46:43;4.93;;;1.63;;
62256;SDS011;48240;52.962;5.790;2023-08-07T14:49:09;5.03;;;1.40;;
62256;SDS011;48240;52.962;5.790;2023-08-07T14:51:35;5.22;;;1.70;;
62256;SDS011;48240;52.962;5.790;2023-08-07T14:54:01;9.05;;;1.63;;
62256;SDS011;48240;52.962;5.790;2023-08-07T14:56:27;6.97;;;1.80;;
62256;SDS011;48240;52.962;5.790;2023-08-07T14:58:54;4.15;;;1.70;;
62256;SDS011;48240;52.962;5.790;2023-08-07T15:01:20;6.63;;;1.90;;
62256;SDS011;48240;52.962;5.790;2023-08-07T15:03:46;7.80;;;1.70;;
62256;SDS011;48240;52.962;5.790;2023-08-07T15:06:12;6.65;;;1.70;;
62256;SDS011;48240;52.962;5.790;2023-08-07T15:08:38;6.20;;;1.70;;
62256;SDS011;48240;52.962;5.790;2023-08-07T15:11:04;3.60;;;1.60;;
62256;SDS011;48240;52.962;5.790;2023-08-07T15:13:30;4.20;;;1.67;;
62256;SDS011;48240;52.962;5.790;2023-08-07T15:15:57;4.75;;;1.70;;
62256;SDS011;48240;52.962;5.790;2023-08-07T15:18:23;8.55;;;1.60;;
62256;SDS011;48240;52.962;5.790;2023-08-07T15:20:49;3.75;;;1.13;;
62256;SDS011;48240;52.962;5.790;2023-08-07T15:23:15;3.97;;;1.50;;
62256;SDS011;48240;52.962;5.790;2023-08-07T15:25:42;2.90;;;1.15;;
62256;SDS011;48240;52.962;5.790;2023-08-07T15:28:08;5.57;;;1.40;;
62256;SDS011;48240;52.962;5.790;2023-08-07T15:30:34;4.25;;;1.45;;
62256;SDS011;48240;52.962;5.790;2023-08-07T15:33:00;3.30;;;1.05;;
62256;SDS011;48240;52.962;5.790;2023-08-07T15:35:28;7.20;;;1.60;;
62256;SDS011;48240;52.962;5.790;2023-08-07T15:37:55;2.42;;;1.10;;
62256;SDS011;48240;52.962;5.790;2023-08-07T15:40:21;7.78;;;1.45;;
62256;SDS011;48240;52.962;5.790;2023-08-07T15:42:47;3.70;;;1.27;;
62256;SDS011;48240;52.962;5.790;2023-08-07T15:45:13;7.18;;;1.33;;
62256;SDS011;48240;52.962;5.790;2023-08-07T15:47:39;3.28;;;1.20;;
62256;SDS011;48240;52.962;5.790;2023-08-07T15:50:05;5.68;;;1.65;;
62256;SDS011;48240;52.962;5.790;2023-08-07T15:52:32;6.80;;;2.10;;
62256;SDS011;48240;52.962;5.790;2023-08-07T15:54:58;4.35;;;1.17;;
62256;SDS011;48240;52.962;5.790;2023-08-07T15:57:24;3.95;;;1.30;;
62256;SDS011;48240;52.962;5.790;2023-08-07T15:59:50;7.82;;;1.40;;
62256;SDS011;48240;52.962;5.790;2023-08-07T16:02:16;4.10;;;1.40;;
62256;SDS011;48240;52.962;5.790;2023-08-07T16:04:42;5.75;;;1.38;;
62256;SDS011;48240;52.962;5.790;2023-08-07T16:07:08;4.43;;;1.20;;
62256;SDS011;48240;52.962;5.790;2023-08-07T16:09:35;3.72;;;1.40;;
62256;SDS011;48240;52.962;5.790;2023-08-07T16:12:01;7.22;;;1.20;;
62256;SDS011;48240;52.962;5.790;2023-08-07T16:14:27;6.35;;;1.38;;
62256;SDS011;48240;52.962;5.790;2023-08-07T16:16:53;5.32;;;1.40;;
62256;SDS011;48240;52.962;5.790;2023-08-07T16:19:19;7.32;;;1.50;;
62256;SDS011;48240;52.962;5.790;2023-08-07T16:21:45;7.47;;;1.48;;
62256;SDS011;48240;52.962;5.790;2023-08-07T16:24:12;4.07;;;1.25;;
62256;SDS011;48240;52.962;5.790;2023-08-07T16:26:38;10.80;;;1.50;;
62256;SDS011;48240;52.962;5.790;2023-08-07T16:29:04;2.33;;;1.27;;
62256;SDS011;48240;52.962;5.790;2023-08-07T16:31:30;3.20;;;1.08;;
62256;SDS011;48240;52.962;5.790;2023-08-07T16:33:56;4.80;;;1.52;;
62256;SDS011;48240;52.962;5.790;2023-08-07T16:36:22;2.75;;;1.10;;
62256;SDS011;48240;52.962;5.790;2023-08-07T16:38:48;3.60;;;1.10;;
62256;SDS011;48240;52.962;5.790;2023-08-07T16:41:15;6.32;;;1.17;;
62256;SDS011;48240;52.962;5.790;2023-08-07T16:43:41;6.68;;;1.42;;
62256;SDS011;48240;52.962;5.790;2023-08-07T16:46:07;5.13;;;1.25;;
62256;SDS011;48240;52.962;5.790;2023-08-07T16:48:34;3.42;;;1.10;;
62256;SDS011;48240;52.962;5.790;2023-08-07T16:51:00;5.20;;;1.33;;
62256;SDS011;48240;52.962;5.790;2023-08-07T16:53:26;4.32;;;1.38;;
62256;SDS011;48240;52.962;5.790;2023-08-07T16:55:52;5.20;;;1.73;;
62256;SDS011;48240;52.962;5.790;2023-08-07T16:58:18;4.55;;;1.50;;
62256;SDS011;48240;52.962;5.790;2023-08-07T17:00:44;4.45;;;1.35;;
62256;SDS011;48240;52.962;5.790;2023-08-07T17:03:10;6.15;;;1.40;;
62256;SDS011;48240;52.962;5.790;2023-08-07T17:05:37;4.57;;;1.33;;
62256;SDS011;48240;52.962;5.790;2023-08-07T17:08:03;3.05;;;1.30;;
62256;SDS011;48240;52.962;5.790;2023-08-07T17:10:29;3.03;;;1.15;;
62256;SDS011;48240;52.962;5.790;2023-08-07T17:12:55;4.60;;;1.25;;
62256;SDS011;48240;52.962;5.790;2023-08-07T17:15:22;3.78;;;1.10;;
62256;SDS011;48240;52.962;5.790;2023-08-07T17:17:48;3.95;;;1.60;;
62256;SDS011;48240;52.962;5.790;2023-08-07T17:20:14;4.32;;;1.48;;
62256;SDS011;48240;52.962;5.790;2023-08-07T17:22:40;5.35;;;1.55;;
62256;SDS011;48240;52.962;5.790;2023-08-07T17:25:06;3.53;;;1.20;;
62256;SDS011;48240;52.962;5.790;2023-08-07T17:27:33;4.63;;;1.25;;
62256;SDS011;48240;52.962;5.790;2023-08-07T17:29:59;3.25;;;1.60;;
62256;SDS011;48240;52.962;5.790;2023-08-07T17:32:25;3.55;;;1.30;;
62256;SDS011;48240;52.962;5.790;2023-08-07T17:34:51;3.40;;;1.15;;
62256;SDS011;48240;52.962;5.790;2023-08-07T17:37:19;4.50;;;1.42;;
62256;SDS011;48240;52.962;5.790;2023-08-07T17:39:45;5.03;;;1.67;;
62256;SDS011;48240;52.962;5.790;2023-08-07T17:42:11;2.65;;;1.20;;
62256;SDS011;48240;52.962;5.790;2023-08-07T17:44:38;6.22;;;1.63;;
62256;SDS011;48240;52.962;5.790;2023-08-07T17:47:04;4.60;;;1.50;;
62256;SDS011;48240;52.962;5.790;2023-08-07T17:49:30;3.10;;;1.33;;
62256;SDS011;48240;52.962;5.790;2023-08-07T17:51:56;3.95;;;1.33;;
62256;SDS011;48240;52.962;5.790;2023-08-07T17:54:22;5.03;;;1.20;;
62256;SDS011;48240;52.962;5.790;2023-08-07T17:56:48;2.95;;;1.30;;
62256;SDS011;48240;52.962;5.790;2023-08-07T17:59:15;3.88;;;1.40;;
62256;SDS011;48240;52.962;5.790;2023-08-07T18:01:41;3.35;;;1.20;;
62256;SDS011;48240;52.962;5.790;2023-08-07T18:04:07;5.15;;;1.20;;
62256;SDS011;48240;52.962;5.790;2023-08-07T18:06:34;15.43;;;1.30;;
62256;SDS011;48240;52.962;5.790;2023-08-07T18:09:00;3.75;;;1.23;;
62256;SDS011;48240;52.962;5.790;2023-08-07T18:11:26;3.92;;;1.33;;
62256;SDS011;48240;52.962;5.790;2023-08-07T18:13:52;5.47;;;1.20;;
62256;SDS011;48240;52.962;5.790;2023-08-07T18:16:18;4.28;;;1.40;;
62256;SDS011;48240;52.962;5.790;2023-08-07T18:18:44;3.60;;;1.20;;
62256;SDS011;48240;52.962;5.790;2023-08-07T18:21:10;2.00;;;1.08;;
62256;SDS011;48240;52.962;5.790;2023-08-07T18:23:36;7.10;;;1.20;;
62256;SDS011;48240;52.962;5.790;2023-08-07T18:26:03;6.75;;;1.90;;
62256;SDS011;48240;52.962;5.790;2023-08-07T18:28:29;3.03;;;1.20;;
62256;SDS011;48240;52.962;5.790;2023-08-07T18:30:56;2.67;;;1.23;;
62256;SDS011;48240;52.962;5.790;2023-08-07T18:33:22;4.57;;;1.30;;
62256;SDS011;48240;52.962;5.790;2023-08-07T18:35:48;3.88;;;1.15;;
62256;SDS011;48240;52.962;5.790;2023-08-07T18:38:15;2.58;;;1.17;;
62256;SDS011;48240;52.962;5.790;2023-08-07T18:40:41;2.85;;;1.40;;
62256;SDS011;48240;52.962;5.790;2023-08-07T18:43:07;4.03;;;1.38;;